Time;durP1;ratioP1;P1;durP2;ratioP2;P2;SDS_P1;SDS_P2;PMS_P1;PMS_P2;Temp;Humidity;BMP_temperature;BMP_pressure;BME280_temperature;BME280_humidity;BME280_pressure;Samples;Min_cycle;Max_cycle;Signal;HPM_P1;HPM_P2
2023/03/15 00:01:13;;;;;;;19.17;17.87;;;;;;;-141.22;100.00;65034.22;4925524;28;20499;-47
2023/03/15 00:03:42;;;;;;;20.70;18.70;;;;;;;-141.22;100.00;65034.22;4935610;29;20448;-44
2023/03/15 00:06:10;;;;;;;19.00;17.70;;;;;;;-141.22;100.00;65034.22;4936037;29;21000;-45
2023/03/15 00:08:40;;;;;;;19.30;17.90;;;;;;;-141.22;100.00;65034.22;4935432;29;20432;-45
2023/03/15 00:11:07;;;;;;;20.70;18.87;;;;;;;-141.22;100.00;65034.22;4914115;28;20506;-49
2023/03/15 00:13:35;;;;;;;20.17;18.83;;;;;;;-141.22;100.00;65034.22;4935347;29;20547;-48
2023/03/15 00:16:03;;;;;;;20.10;18.57;;;;;;;-141.22;100.00;65034.22;4935386;29;20460;-47
2023/03/15 00:18:32;;;;;;;19.13;18.03;;;;;;;-141.22;100.00;65034.22;4935238;29;20480;-45
2023/03/15 00:21:00;;;;;;;19.20;17.87;;;;;;;-141.22;100.00;65034.22;4935298;29;20448;-43
2023/03/15 00:23:27;;;;;;;19.43;18.53;;;;;;;-141.22;100.00;65034.22;4924286;28;20520;-44
2023/03/15 00:25:56;;;;;;;19.80;18.90;;;;;;;-141.22;100.00;65034.22;4935262;29;21005;-46
2023/03/15 00:28:24;;;;;;;20.70;19.40;;;;;;;-141.22;100.00;65034.22;4934969;29;20441;-46
2023/03/15 00:31:02;;;;;;;19.70;18.77;;;;;;;-141.22;100.00;65034.22;4934927;29;20432;-45
2023/03/15 00:33:33;;;;;;;18.93;18.00;;;;;;;-141.22;100.00;65034.22;4925111;28;20567;-46
2023/03/15 00:36:04;;;;;;;18.20;17.10;;;;;;;-141.22;100.00;65034.22;4935097;29;20460;-45
2023/03/15 00:38:32;;;;;;;17.83;16.93;;;;;;;-141.22;100.00;65034.22;4935224;29;20472;-45
2023/03/15 00:41:06;;;;;;;18.73;17.30;;;;;;;-141.22;100.00;65034.22;4934537;29;20752;-45
2023/03/15 00:43:34;;;;;;;16.20;15.70;;;;;;;-141.22;100.00;65034.22;4912699;28;20460;-49
2023/03/15 00:46:02;;;;;;;16.70;16.20;;;;;;;-141.22;100.00;65034.22;4934536;29;20457;-47
2023/03/15 00:48:30;;;;;;;16.33;15.83;;;;;;;-141.22;100.00;65034.22;4934416;29;20441;-44
2023/03/15 00:51:05;;;;;;;16.00;15.50;;;;;;;-141.22;100.00;65034.22;4934722;29;20441;-47
2023/03/15 00:53:34;;;;;;;18.43;17.63;;;;;;;-141.22;100.00;65034.22;4912970;28;21139;-47
2023/03/15 00:56:08;;;;;;;16.13;15.60;;;;;;;-141.22;100.00;65034.22;4934636;29;20456;-46
2023/03/15 00:58:36;;;;;;;15.83;15.33;;;;;;;-141.22;100.00;65034.22;4934601;29;20542;-44
2023/03/15 01:01:06;;;;;;;16.20;15.60;;;;;;;-141.22;100.00;65034.22;4934432;29;20444;-46
2023/03/15 01:03:34;;;;;;;15.97;15.20;;;;;;;-141.22;100.00;65034.22;4910837;29;20931;-44
2023/03/15 01:06:08;;;;;;;16.60;15.77;;;;;;;-141.22;100.00;65034.22;4935815;28;20542;-45
2023/03/15 01:08:35;;;;;;;17.40;16.50;;;;;;;-141.22;100.00;65034.22;4934776;29;20432;-44
2023/03/15 01:11:04;;;;;;;16.50;15.70;;;;;;;-141.22;100.00;65034.22;4933864;29;20443;-50
2023/03/15 01:13:34;;;;;;;16.13;15.37;;;;;;;-141.22;100.00;65034.22;4934023;29;20448;-46
2023/03/15 01:16:01;;;;;;;16.50;15.70;;;;;;;-141.22;100.00;65034.22;4921445;28;20508;-47
2023/03/15 01:18:29;;;;;;;18.23;17.43;;;;;;;-141.22;100.00;65034.22;4934456;29;20571;-47
2023/03/15 01:20:57;;;;;;;17.43;16.53;;;;;;;-141.22;100.00;65034.22;4934294;29;21175;-44
2023/03/15 01:23:25;;;;;;;16.83;16.13;;;;;;;-141.22;100.00;65034.22;4933605;29;20881;-47
2023/03/15 01:25:53;;;;;;;17.20;16.40;;;;;;;-141.22;100.00;65034.22;4911723;28;21028;-44
2023/03/15 01:28:21;;;;;;;16.33;15.63;;;;;;;-141.22;100.00;65034.22;4933670;29;20496;-49
2023/03/15 01:30:50;;;;;;;16.30;15.60;;;;;;;-141.22;100.00;65034.22;4933743;29;20484;-45
2023/03/15 01:33:18;;;;;;;17.40;16.40;;;;;;;-141.22;100.00;65034.22;4934335;29;20468;-43
2023/03/15 01:35:46;;;;;;;15.60;15.00;;;;;;;-141.22;100.00;65034.22;4912488;28;20492;-49
2023/03/15 01:38:14;;;;;;;16.33;15.63;;;;;;;-141.22;100.00;65034.22;4933916;29;21017;-47
2023/03/15 01:40:43;;;;;;;20.63;18.73;;;;;;;-141.22;100.00;65034.22;4933569;29;20998;-43
2023/03/15 01:43:17;;;;;;;15.63;14.57;;;;;;;-141.22;100.00;65034.22;4933921;29;20441;-44
2023/03/15 01:46:22;;;;;;;15.37;14.77;;;;;;;-141.22;100.00;65034.22;4912686;28;20546;-43
2023/03/15 01:48:56;;;;;;;18.50;17.40;;;;;;;-141.22;100.00;65034.22;4933587;29;20483;-44
2023/03/15 01:51:28;;;;;;;21.10;20.20;;;;;;;-141.22;100.00;65034.22;4933188;29;20448;-44
2023/03/15 01:54:00;;;;;;;34.83;33.20;;;;;;;-141.22;100.00;65034.22;4933426;29;20440;-46
2023/03/15 01:56:30;;;;;;;48.13;46.03;;;;;;;-141.22;100.00;65034.22;4916839;28;20483;-43
2023/03/15 01:59:01;;;;;;;44.53;42.83;;;;;;;-141.22;100.00;65034.22;4933336;29;20479;-45
2023/03/15 02:01:31;;;;;;;44.00;42.50;;;;;;;-141.22;100.00;65034.22;4933128;29;21238;-44
2023/03/15 02:04:03;;;;;;;48.27;46.37;;;;;;;-141.22;100.00;65034.22;4933564;29;20433;-46
2023/03/15 02:06:33;;;;;;;55.33;52.80;;;;;;;-141.22;100.00;65034.22;4932805;29;20452;-44
2023/03/15 02:09:05;;;;;;;53.33;51.10;;;;;;;-141.22;100.00;65034.22;4912122;28;20452;-44
2023/03/15 02:11:35;;;;;;;58.53;56.43;;;;;;;-141.22;100.00;65034.22;4932878;29;21106;-43
2023/03/15 02:14:06;;;;;;;60.80;58.30;;;;;;;-141.22;100.00;65034.22;4932872;29;20437;-44
2023/03/15 02:16:35;;;;;;;66.57;64.20;;;;;;;-141.22;100.00;65034.22;4932961;29;20547;-44
2023/03/15 02:19:04;;;;;;;68.77;65.93;;;;;;;-141.22;100.00;65034.22;4918423;28;20516;-43
2023/03/15 02:21:41;;;;;;;70.50;67.73;;;;;;;-141.22;100.00;65034.22;4932451;29;20429;-45
2023/03/15 02:24:20;;;;;;;69.53;66.70;;;;;;;-141.22;100.00;65034.22;4932287;29;20444;-46
2023/03/15 02:26:51;;;;;;;67.97;65.57;;;;;;;-141.22;100.00;65034.22;4932918;29;20460;-46
2023/03/15 02:29:23;;;;;;;67.73;65.27;;;;;;;-141.22;100.00;65034.22;4914161;28;20551;-47
2023/03/15 02:31:51;;;;;;;61.53;59.13;;;;;;;-141.22;100.00;65034.22;4933161;29;20437;-45
2023/03/15 02:34:24;;;;;;;61.97;59.43;;;;;;;-141.22;100.00;65034.22;4932599;29;21169;-44
2023/03/15 02:36:53;;;;;;;58.73;56.63;;;;;;;-141.22;100.00;65034.22;4933262;29;20465;-45
2023/03/15 02:39:22;;;;;;;52.37;49.93;;;;;;;-141.22;100.00;65034.22;4927650;28;20479;-44
2023/03/15 02:41:53;;;;;;;43.63;42.23;;;;;;;-141.22;100.00;65034.22;4951657;28;20490;-47
2023/03/15 02:44:29;;;;;;;37.47;35.90;;;;;;;-141.22;100.00;65034.22;4951560;28;20539;-43
2023/03/15 02:47:02;;;;;;;36.43;34.87;;;;;;;-141.22;100.00;65034.22;4950980;28;20466;-47
2023/03/15 02:49:35;;;;;;;32.70;31.40;;;;;;;-141.22;100.00;65034.22;4929448;28;20460;-44
2023/03/15 02:52:03;;;;;;;30.10;28.87;;;;;;;-141.22;100.00;65034.22;4951525;28;20526;-45
2023/03/15 02:54:33;;;;;;;28.53;27.33;;;;;;;-141.22;100.00;65034.22;4951428;28;20922;-44
2023/03/15 02:57:01;;;;;;;27.67;26.50;;;;;;;-141.22;100.00;65034.22;4951704;28;20479;-44
2023/03/15 02:59:30;;;;;;;30.97;29.30;;;;;;;-141.22;100.00;65034.22;4937369;28;20915;-48
2023/03/15 03:01:57;;;;;;;29.20;27.70;;;;;;;-141.22;100.00;65034.22;4951052;28;20467;-42
2023/03/15 03:04:25;;;;;;;29.07;27.83;;;;;;;-141.22;100.00;65034.22;4951716;28;20431;-43
2023/03/15 03:06:53;;;;;;;27.83;26.60;;;;;;;-141.22;100.00;65034.22;4951119;28;20534;-44
2023/03/15 03:09:21;;;;;;;26.17;25.17;;;;;;;-141.22;100.00;65034.22;4929261;28;20458;-43
2023/03/15 03:11:48;;;;;;;27.07;26.03;;;;;;;-141.22;100.00;65034.22;4951019;28;20850;-46
2023/03/15 03:14:16;;;;;;;27.27;26.27;;;;;;;-141.22;100.00;65034.22;4951061;28;20474;-46
2023/03/15 03:16:45;;;;;;;26.90;25.60;;;;;;;-141.22;100.00;65034.22;4950911;28;20451;-44
2023/03/15 03:19:13;;;;;;;26.40;25.40;;;;;;;-141.22;100.00;65034.22;4951237;28;20450;-45
2023/03/15 03:21:43;;;;;;;26.43;25.33;;;;;;;-141.22;100.00;65034.22;4929436;28;20546;-47
2023/03/15 03:24:15;;;;;;;28.07;26.97;;;;;;;-141.22;100.00;65034.22;4951406;28;20435;-46
2023/03/15 03:26:44;;;;;;;29.73;28.50;;;;;;;-141.22;100.00;65034.22;4950602;28;20466;-47
2023/03/15 03:29:15;;;;;;;28.87;27.40;;;;;;;-141.22;100.00;65034.22;4951236;28;20428;-45
2023/03/15 03:31:44;;;;;;;28.50;27.30;;;;;;;-141.22;100.00;65034.22;4928840;28;20456;-50
2023/03/15 03:34:14;;;;;;;31.60;29.97;;;;;;;-141.22;100.00;65034.22;4951184;28;20424;-45
2023/03/15 03:36:42;;;;;;;29.87;28.43;;;;;;;-141.22;100.00;65034.22;4950214;28;20558;-46
2023/03/15 03:39:10;;;;;;;30.50;27.90;;;;;;;-141.22;100.00;65034.22;4950708;28;20432;-47
2023/03/15 03:41:38;;;;;;;29.50;27.60;;;;;;;-141.22;100.00;65034.22;4929223;28;20505;-44
2023/03/15 03:44:06;;;;;;;28.10;26.90;;;;;;;-141.22;100.00;65034.22;4951035;28;20452;-45
2023/03/15 03:46:35;;;;;;;29.50;28.30;;;;;;;-141.22;100.00;65034.22;4950835;28;21019;-44
2023/03/15 03:49:04;;;;;;;28.97;27.17;;;;;;;-141.22;100.00;65034.22;4950863;28;20443;-50
2023/03/15 03:51:32;;;;;;;28.43;27.03;;;;;;;-141.22;100.00;65034.22;4950383;28;20432;-43
2023/03/15 03:54:00;;;;;;;28.23;26.73;;;;;;;-141.22;100.00;65034.22;4929202;28;20469;-45
2023/03/15 03:56:28;;;;;;;28.27;26.50;;;;;;;-141.22;100.00;65034.22;4950610;28;20456;-45
2023/03/15 03:58:56;;;;;;;27.03;25.80;;;;;;;-141.22;100.00;65034.22;4950638;28;20440;-44
2023/03/15 04:01:24;;;;;;;28.23;26.50;;;;;;;-141.22;100.00;65034.22;4951238;28;20479;-44
2023/03/15 04:03:51;;;;;;;28.80;27.37;;;;;;;-141.22;100.00;65034.22;4935122;28;20464;-44
2023/03/15 04:06:21;;;;;;;29.20;27.90;;;;;;;-141.22;100.00;65034.22;4950619;28;20459;-45
2023/03/15 04:08:49;;;;;;;26.23;25.23;;;;;;;-141.22;100.00;65034.22;4950766;28;20527;-51
2023/03/15 04:11:17;;;;;;;27.40;26.17;;;;;;;-141.22;100.00;65034.22;4950903;28;20439;-46
2023/03/15 04:13:45;;;;;;;28.50;27.00;;;;;;;-141.22;100.00;65034.22;4928796;28;20468;-47
2023/03/15 04:16:13;;;;;;;28.60;26.93;;;;;;;-141.22;100.00;65034.22;4950054;28;21027;-45
2023/03/15 04:18:41;;;;;;;27.10;25.70;;;;;;;-141.22;100.00;65034.22;4950893;28;20446;-46
2023/03/15 04:21:09;;;;;;;26.93;25.77;;;;;;;-141.22;100.00;65034.22;4950504;28;20479;-44
2023/03/15 04:23:39;;;;;;;29.43;27.70;;;;;;;-141.22;100.00;65034.22;4928175;28;20459;-45
2023/03/15 04:26:06;;;;;;;28.00;26.80;;;;;;;-141.22;100.00;65034.22;4949990;28;20456;-45
2023/03/15 04:28:36;;;;;;;30.60;29.13;;;;;;;-141.22;100.00;65034.22;4950447;28;20436;-45
2023/03/15 04:31:09;;;;;;;32.10;30.40;;;;;;;-141.22;100.00;65034.22;4950362;28;20436;-48
2023/03/15 04:33:37;;;;;;;32.10;30.60;;;;;;;-141.22;100.00;65034.22;4928463;28;20537;-45
2023/03/15 04:36:04;;;;;;;32.60;31.00;;;;;;;-141.22;100.00;65034.22;4950285;28;20467;-46
2023/03/15 04:38:34;;;;;;;34.53;32.57;;;;;;;-141.22;100.00;65034.22;4950651;28;20431;-44
2023/03/15 04:41:09;;;;;;;33.83;32.10;;;;;;;-141.22;100.00;65034.22;4950494;28;20480;-44
2023/03/15 04:43:37;;;;;;;35.23;33.30;;;;;;;-141.22;100.00;65034.22;4928483;28;20469;-44
2023/03/15 04:46:05;;;;;;;31.70;30.20;;;;;;;-141.22;100.00;65034.22;4950685;28;20464;-46
2023/03/15 04:48:32;;;;;;;31.40;29.80;;;;;;;-141.22;100.00;65034.22;4954144;28;20437;-45
2023/03/15 04:51:00;;;;;;;29.87;28.37;;;;;;;-141.22;100.00;65034.22;4954070;28;20975;-45
2023/03/15 04:53:28;;;;;;;30.07;28.63;;;;;;;-141.22;100.00;65034.22;4953397;28;20439;-47
2023/03/15 04:55:56;;;;;;;31.73;29.83;;;;;;;-141.22;100.00;65034.22;4930302;28;20476;-43
2023/03/15 04:58:25;;;;;;;32.93;30.60;;;;;;;-141.22;100.00;65034.22;4953249;28;20439;-45
2023/03/15 05:00:52;;;;;;;32.20;30.60;;;;;;;-141.22;100.00;65034.22;4953648;28;20618;-47
2023/03/15 05:03:21;;;;;;;32.40;30.47;;;;;;;-141.22;100.00;65034.22;4953201;28;20471;-47
2023/03/15 05:05:48;;;;;;;35.40;33.47;;;;;;;-141.22;100.00;65034.22;4929603;28;20869;-45
2023/03/15 05:08:16;;;;;;;35.13;33.23;;;;;;;-141.22;100.00;65034.22;4954895;28;20439;-44
2023/03/15 05:10:44;;;;;;;39.63;37.47;;;;;;;-141.22;100.00;65034.22;4953298;28;20926;-46
2023/03/15 05:13:12;;;;;;;42.33;40.43;;;;;;;-141.22;100.00;65034.22;4953400;28;20436;-45
2023/03/15 05:15:40;;;;;;;46.33;44.07;;;;;;;-141.22;100.00;65034.22;4953062;28;20459;-44
2023/03/15 05:18:08;;;;;;;48.33;45.93;;;;;;;-141.22;100.00;65034.22;4939117;28;20529;-43
2023/03/15 05:20:36;;;;;;;53.53;51.23;;;;;;;-141.22;100.00;65034.22;4953298;28;20435;-45
2023/03/15 05:23:04;;;;;;;58.70;56.27;;;;;;;-141.22;100.00;65034.22;4953266;28;20440;-45
2023/03/15 05:25:32;;;;;;;71.03;67.93;;;;;;;-141.22;100.00;65034.22;4953030;28;20846;-45
2023/03/15 05:28:03;;;;;;;91.60;87.50;;;;;;;-141.22;100.00;65034.22;4931611;28;20471;-43
2023/03/15 05:30:31;;;;;;;97.50;93.43;;;;;;;-141.22;100.00;65034.22;4952812;28;20435;-46
2023/03/15 05:33:03;;;;;;;93.67;90.07;;;;;;;-141.22;100.00;65034.22;4952945;28;20442;-44
2023/03/15 05:35:31;;;;;;;71.63;68.27;;;;;;;-141.22;100.00;65034.22;4952996;28;20468;-44
2023/03/15 05:37:59;;;;;;;62.70;60.20;;;;;;;-141.22;100.00;65034.22;4930347;28;21009;-43
2023/03/15 05:40:28;;;;;;;58.93;56.17;;;;;;;-141.22;100.00;65034.22;4952953;28;20440;-43
2023/03/15 05:42:56;;;;;;;57.30;54.93;;;;;;;-141.22;100.00;65034.22;4952885;28;20440;-46
2023/03/15 05:45:24;;;;;;;47.50;45.70;;;;;;;-141.22;100.00;65034.22;4952588;28;20463;-44
2023/03/15 05:47:51;;;;;;;46.60;44.57;;;;;;;-141.22;100.00;65034.22;4930617;28;20432;-45
2023/03/15 05:50:20;;;;;;;46.53;44.43;;;;;;;-141.22;100.00;65034.22;4952920;28;20442;-45
2023/03/15 05:52:50;;;;;;;46.70;44.60;;;;;;;-141.22;100.00;65034.22;4952339;28;20427;-45
2023/03/15 05:55:18;;;;;;;49.30;47.20;;;;;;;-141.22;100.00;65034.22;4952605;28;20826;-45
2023/03/15 05:57:46;;;;;;;50.33;48.00;;;;;;;-141.22;100.00;65034.22;4952364;28;20435;-44
2023/03/15 06:00:15;;;;;;;53.93;50.93;;;;;;;-141.22;100.00;65034.22;4938419;28;20463;-47
2023/03/15 06:02:43;;;;;;;51.67;49.30;;;;;;;-141.22;100.00;65034.22;4951204;28;20472;-44
2023/03/15 06:05:12;;;;;;;52.27;49.77;;;;;;;-141.22;100.00;65034.22;4952155;28;20443;-45
2023/03/15 06:07:41;;;;;;;56.03;53.13;;;;;;;-141.22;100.00;65034.22;4952519;28;20468;-49
2023/03/15 06:10:10;;;;;;;56.83;54.63;;;;;;;-141.22;100.00;65034.22;4930163;28;20459;-45
2023/03/15 06:12:38;;;;;;;58.07;55.60;;;;;;;-141.22;100.00;65034.22;4952106;28;20428;-43
2023/03/15 06:15:07;;;;;;;58.13;55.73;;;;;;;-141.22;100.00;65034.22;4951997;28;20436;-46
2023/03/15 06:17:35;;;;;;;59.40;56.70;;;;;;;-141.22;100.00;65034.22;4951764;28;20436;-47
2023/03/15 06:20:03;;;;;;;65.77;62.67;;;;;;;-141.22;100.00;65034.22;4930229;28;20460;-46
2023/03/15 06:22:31;;;;;;;73.53;70.83;;;;;;;-141.22;100.00;65034.22;4951874;28;20558;-46
2023/03/15 06:25:02;;;;;;;78.40;74.93;;;;;;;-141.22;100.00;65034.22;4951908;28;20837;-49
2023/03/15 06:27:30;;;;;;;91.17;87.33;;;;;;;-141.22;100.00;65034.22;4951617;28;20450;-44
2023/03/15 06:29:58;;;;;;;92.60;88.90;;;;;;;-141.22;100.00;65034.22;4951649;28;20765;-45
2023/03/15 06:32:26;;;;;;;84.50;81.27;;;;;;;-141.22;100.00;65034.22;4932617;28;20471;-47
2023/03/15 06:34:53;;;;;;;81.70;78.47;;;;;;;-141.22;100.00;65034.22;4951511;28;20512;-44
2023/03/15 06:37:22;;;;;;;82.60;79.27;;;;;;;-141.22;100.00;65034.22;4952364;28;20459;-51
2023/03/15 06:40:06;;;;;;;70.83;67.30;;;;;;;-141.22;100.00;65034.22;4951660;28;21014;-47
2023/03/15 06:42:34;;;;;;;66.03;63.23;;;;;;;-141.22;100.00;65034.22;4929702;28;20600;-51
2023/03/15 06:45:02;;;;;;;60.57;57.20;;;;;;;-141.22;100.00;65034.22;4951688;28;20821;-46
2023/03/15 06:47:29;;;;;;;51.27;48.77;;;;;;;-141.22;100.00;65034.22;4951709;28;20446;-45
2023/03/15 06:49:57;;;;;;;53.93;51.33;;;;;;;-141.22;100.00;65034.22;4951312;28;20972;-46
2023/03/15 06:52:25;;;;;;;59.10;56.00;;;;;;;-141.22;100.00;65034.22;4929307;28;20459;-47
2023/03/15 06:54:52;;;;;;;60.13;57.57;;;;;;;-141.22;100.00;65034.22;4952504;28;20469;-44
2023/03/15 06:57:21;;;;;;;59.27;56.43;;;;;;;-141.22;100.00;65034.22;4951481;28;20459;-49
2023/03/15 06:59:49;;;;;;;66.07;62.70;;;;;;;-141.22;100.00;65034.22;4951720;28;20440;-50
2023/03/15 07:02:18;;;;;;;67.93;64.53;;;;;;;-141.22;100.00;65034.22;4928800;28;20492;-49
2023/03/15 07:04:47;;;;;;;62.63;59.93;;;;;;;-141.22;100.00;65034.22;4951626;28;20446;-49
2023/03/15 07:07:15;;;;;;;64.67;62.20;;;;;;;-141.22;100.00;65034.22;4951180;28;20460;-44
2023/03/15 07:09:43;;;;;;;63.20;60.50;;;;;;;-141.22;100.00;65034.22;4950840;28;20447;-46
2023/03/15 07:12:11;;;;;;;60.60;57.70;;;;;;;-141.22;100.00;65034.22;4929904;28;20455;-45
2023/03/15 07:14:40;;;;;;;56.77;54.33;;;;;;;-141.22;100.00;65034.22;4950845;28;20455;-49
2023/03/15 07:17:08;;;;;;;51.27;49.17;;;;;;;-141.22;100.00;65034.22;4950997;28;20978;-43
2023/03/15 07:19:35;;;;;;;52.33;50.03;;;;;;;-141.22;100.00;65034.22;4951269;28;20443;-44
2023/03/15 07:22:13;;;;;;;52.97;50.47;;;;;;;-141.22;100.00;65034.22;4928659;28;20475;-46
2023/03/15 07:24:40;;;;;;;47.60;45.63;;;;;;;-141.22;100.00;65034.22;4950695;28;20439;-47
2023/03/15 07:27:11;;;;;;;49.13;47.13;;;;;;;-141.22;100.00;65034.22;4950807;28;20456;-46
2023/03/15 07:29:43;;;;;;;48.67;46.50;;;;;;;-141.22;100.00;65034.22;4950726;28;20523;-45
2023/03/15 07:32:11;;;;;;;49.57;47.30;;;;;;;-141.22;100.00;65034.22;4950615;28;20432;-44
2023/03/15 07:34:39;;;;;;;41.43;39.40;;;;;;;-141.22;100.00;65034.22;4929498;28;20799;-44
2023/03/15 07:37:07;;;;;;;35.53;33.80;;;;;;;-141.22;100.00;65034.22;4950722;28;20843;-44
2023/03/15 07:39:34;;;;;;;32.60;30.80;;;;;;;-141.22;100.00;65034.22;4951093;28;20818;-44
2023/03/15 07:42:02;;;;;;;32.17;30.20;;;;;;;-141.22;100.00;65034.22;4950569;28;20482;-44
2023/03/15 07:44:30;;;;;;;31.90;30.17;;;;;;;-141.22;100.00;65034.22;4929335;28;20466;-43
2023/03/15 07:46:59;;;;;;;31.60;29.87;;;;;;;-141.22;100.00;65034.22;4950547;28;20787;-41
2023/03/15 07:49:27;;;;;;;32.80;30.70;;;;;;;-141.22;100.00;65034.22;4950905;28;20542;-45
2023/03/15 07:51:55;;;;;;;31.97;30.40;;;;;;;-141.22;100.00;65034.22;4950578;28;20442;-51
2023/03/15 07:54:22;;;;;;;33.87;31.60;;;;;;;-141.22;100.00;65034.22;4928956;28;20459;-45
2023/03/15 07:56:50;;;;;;;33.13;31.40;;;;;;;-141.22;100.00;65034.22;4950781;28;20822;-43
2023/03/15 07:59:18;;;;;;;32.27;30.60;;;;;;;-141.22;100.00;65034.22;4950878;28;20432;-45
2023/03/15 08:01:45;;;;;;;33.00;31.30;;;;;;;-141.22;100.00;65034.22;4950741;28;20444;-45
2023/03/15 08:04:14;;;;;;;33.20;31.60;;;;;;;-141.22;100.00;65034.22;4950639;28;20938;-45
2023/03/15 08:06:42;;;;;;;33.80;32.03;;;;;;;-141.22;100.00;65034.22;4929024;28;20487;-48
2023/03/15 08:09:10;;;;;;;32.37;30.40;;;;;;;-141.22;100.00;65034.22;4950838;28;20468;-45
2023/03/15 08:11:38;;;;;;;32.63;30.93;;;;;;;-141.22;100.00;65034.22;4950492;28;20487;-43
2023/03/15 08:14:06;;;;;;;31.00;29.40;;;;;;;-141.22;100.00;65034.22;4950494;28;20514;-45
2023/03/15 08:16:33;;;;;;;32.30;30.50;;;;;;;-141.22;100.00;65034.22;4928364;28;20475;-43
2023/03/15 08:19:01;;;;;;;30.70;28.90;;;;;;;-141.22;100.00;65034.22;4950576;28;20530;-44
2023/03/15 08:21:32;;;;;;;30.90;29.30;;;;;;;-141.22;100.00;65034.22;4950334;28;21008;-44
2023/03/15 08:24:00;;;;;;;31.70;30.10;;;;;;;-141.22;100.00;65034.22;4954703;28;20494;-43
2023/03/15 08:26:28;;;;;;;30.20;28.60;;;;;;;-141.22;100.00;65034.22;4936423;28;20525;-45
2023/03/15 08:28:56;;;;;;;27.73;26.27;;;;;;;-141.22;100.00;65034.22;4953702;28;20445;-43
2023/03/15 08:31:23;;;;;;;27.40;26.00;;;;;;;-141.22;100.00;65034.22;4954148;28;20427;-43
2023/03/15 08:33:51;;;;;;;27.93;26.43;;;;;;;-141.22;100.00;65034.22;4954239;28;20498;-44
2023/03/15 08:36:20;;;;;;;28.57;27.13;;;;;;;-141.22;100.00;65034.22;4930755;28;20497;-45
2023/03/15 08:38:49;;;;;;;29.20;27.40;;;;;;;-141.22;100.00;65034.22;4954251;28;20436;-45
2023/03/15 08:41:16;;;;;;;29.03;27.63;;;;;;;-141.22;100.00;65034.22;4954027;28;20438;-46
2023/03/15 08:43:44;;;;;;;30.00;27.87;;;;;;;-141.22;100.00;65034.22;4953217;28;20475;-45
2023/03/15 08:46:11;;;;;;;28.73;27.13;;;;;;;-141.22;100.00;65034.22;4953785;28;20455;-44
2023/03/15 08:48:39;;;;;;;28.57;27.07;;;;;;;-141.22;100.00;65034.22;4944428;28;20518;-46
2023/03/15 08:51:08;;;;;;;29.27;27.67;;;;;;;-141.22;100.00;65034.22;4953937;28;20946;-45
2023/03/15 08:53:37;;;;;;;28.97;27.73;;;;;;;-141.22;100.00;65034.22;4953672;28;20761;-46
2023/03/15 08:56:06;;;;;;;28.40;26.70;;;;;;;-141.22;100.00;65034.22;4953189;28;20455;-45
2023/03/15 08:58:34;;;;;;;27.13;26.03;;;;;;;-141.22;100.00;65034.22;4939775;28;20475;-46
2023/03/15 09:01:03;;;;;;;29.60;28.20;;;;;;;-141.22;100.00;65034.22;4953477;28;20436;-47
2023/03/15 09:03:32;;;;;;;28.97;27.67;;;;;;;-141.22;100.00;65034.22;4952962;28;20526;-45
2023/03/15 09:06:00;;;;;;;28.70;27.30;;;;;;;-141.22;100.00;65034.22;4953136;28;20452;-44
2023/03/15 09:08:28;;;;;;;28.03;26.57;;;;;;;-141.22;100.00;65034.22;4931601;28;20558;-45
2023/03/15 09:10:56;;;;;;;28.40;27.00;;;;;;;-141.22;100.00;65034.22;4953374;28;20435;-48
2023/03/15 09:13:26;;;;;;;27.13;25.93;;;;;;;-141.22;100.00;65034.22;4953250;28;20439;-45
2023/03/15 09:15:56;;;;;;;29.13;27.73;;;;;;;-141.22;100.00;65034.22;4953303;28;20478;-52
2023/03/15 09:18:24;;;;;;;29.90;28.00;;;;;;;-141.22;100.00;65034.22;4942629;28;20475;-45
2023/03/15 09:20:52;;;;;;;28.70;27.40;;;;;;;-141.22;100.00;65034.22;4953466;28;20842;-45
2023/03/15 09:23:20;;;;;;;29.07;27.47;;;;;;;-141.22;100.00;65034.22;4952711;28;20483;-45
2023/03/15 09:25:47;;;;;;;26.97;25.80;;;;;;;-141.22;100.00;65034.22;4953040;28;20456;-45
2023/03/15 09:28:15;;;;;;;26.13;25.00;;;;;;;-141.22;100.00;65034.22;4931262;28;20456;-46
2023/03/15 09:30:44;;;;;;;27.00;25.53;;;;;;;-141.22;100.00;65034.22;4952331;28;20444;-45
2023/03/15 09:33:13;;;;;;;26.87;25.77;;;;;;;-141.22;100.00;65034.22;4952559;28;20436;-45
2023/03/15 09:35:41;;;;;;;27.20;25.90;;;;;;;-141.22;100.00;65034.22;4952752;28;20471;-46
2023/03/15 09:38:09;;;;;;;28.03;26.50;;;;;;;-141.22;100.00;65034.22;4931361;28;20446;-44
2023/03/15 09:40:40;;;;;;;28.83;27.33;;;;;;;-141.22;100.00;65034.22;4952878;28;20468;-45
2023/03/15 09:43:22;;;;;;;27.63;26.37;;;;;;;-141.22;100.00;65034.22;4952672;28;20837;-44
2023/03/15 09:46:10;;;;;;;28.53;27.13;;;;;;;-141.22;100.00;65034.22;4952564;28;20462;-48
2023/03/15 09:48:48;;;;;;;27.40;26.30;;;;;;;-141.22;100.00;65034.22;4931178;28;20874;-48
2023/03/15 09:51:34;;;;;;;28.80;27.30;;;;;;;-141.22;100.00;65034.22;4953049;28;20438;-46
2023/03/15 09:54:05;;;;;;;27.33;26.23;;;;;;;-141.22;100.00;65034.22;4953349;28;20432;-47
2023/03/15 09:56:36;;;;;;;29.27;27.97;;;;;;;-141.22;100.00;65034.22;4952990;28;20456;-45
2023/03/15 09:59:05;;;;;;;28.00;26.90;;;;;;;-141.22;100.00;65034.22;4930846;28;20469;-45
2023/03/15 10:01:36;;;;;;;27.40;26.30;;;;;;;-141.22;100.00;65034.22;4952590;28;20443;-44
2023/03/15 10:04:11;;;;;;;28.03;26.83;;;;;;;-141.22;100.00;65034.22;4952025;28;20471;-45
2023/03/15 10:06:44;;;;;;;27.30;26.20;;;;;;;-141.22;100.00;65034.22;4952212;28;20507;-45
2023/03/15 10:09:17;;;;;;;26.30;24.80;;;;;;;-141.22;100.00;65034.22;4929482;28;20435;-48
2023/03/15 10:11:54;;;;;;;25.67;24.57;;;;;;;-141.22;100.00;65034.22;4951663;28;20432;-46
2023/03/15 10:14:33;;;;;;;26.40;25.20;;;;;;;-141.22;100.00;65034.22;4952307;28;20435;-45
2023/03/15 10:17:05;;;;;;;26.87;25.07;;;;;;;-141.22;100.00;65034.22;4951663;28;20554;-45
2023/03/15 10:19:44;;;;;;;26.13;24.93;;;;;;;-141.22;100.00;65034.22;4930000;28;20445;-45
2023/03/15 10:22:20;;;;;;;26.87;25.37;;;;;;;-141.22;100.00;65034.22;4951393;28;20440;-46
2023/03/15 10:24:53;;;;;;;25.97;24.80;;;;;;;-141.22;100.00;65034.22;4952788;28;20479;-46
2023/03/15 10:27:22;;;;;;;26.10;24.80;;;;;;;-141.22;100.00;65034.22;4951599;28;20452;-44
2023/03/15 10:29:54;;;;;;;26.40;24.97;;;;;;;-141.22;100.00;65034.22;4939462;28;20439;-45
2023/03/15 10:32:28;;;;;;;26.40;25.00;;;;;;;-141.22;100.00;65034.22;4953262;28;20475;-49
2023/03/15 10:34:58;;;;;;;25.90;24.20;;;;;;;-141.22;100.00;65034.22;4951457;28;20938;-44
2023/03/15 10:37:26;;;;;;;24.43;23.33;;;;;;;-141.22;100.00;65034.22;4951728;28;20487;-45
2023/03/15 10:39:56;;;;;;;24.90;23.63;;;;;;;-141.22;100.00;65034.22;4952260;28;20442;-48
2023/03/15 10:42:29;;;;;;;24.93;23.67;;;;;;;-141.22;100.00;65034.22;4929957;28;20468;-45
2023/03/15 10:44:57;;;;;;;26.07;24.77;;;;;;;-141.22;100.00;65034.22;4950998;28;21074;-46
2023/03/15 10:47:27;;;;;;;27.77;26.23;;;;;;;-141.22;100.00;65034.22;4951829;28;20495;-49
2023/03/15 10:49:57;;;;;;;30.40;28.57;;;;;;;-141.22;100.00;65034.22;4951599;28;20435;-47
2023/03/15 10:52:34;;;;;;;33.77;31.83;;;;;;;-141.22;100.00;65034.22;4929406;28;20507;-46
2023/03/15 10:55:06;;;;;;;30.00;28.10;;;;;;;-141.22;100.00;65034.22;4951606;28;20428;-45
2023/03/15 10:57:37;;;;;;;29.87;28.50;;;;;;;-141.22;100.00;65034.22;4951654;28;20446;-45
2023/03/15 11:00:19;;;;;;;29.63;27.83;;;;;;;-141.22;100.00;65034.22;4951316;28;20438;-45
2023/03/15 11:02:51;;;;;;;29.67;27.70;;;;;;;-141.22;100.00;65034.22;4929300;28;20526;-48
2023/03/15 11:05:20;;;;;;;29.40;28.10;;;;;;;-141.22;100.00;65034.22;4951039;28;20472;-45